sensor_id;sensor_type;location;lat;lon;timestamp;pressure;altitude;pressure_sealevel;temperature;humidity
80712;BME280;70078;51.596;5.678;2024-01-11T00:01:57;103109.22;;;-3.65;68.15
80712;BME280;70078;51.596;5.678;2024-01-11T00:04:22;103099.47;;;-3.51;67.92
80712;BME280;70078;51.596;5.678;2024-01-11T00:06:48;103099.59;;;-3.60;67.70
80712;BME280;70078;51.596;5.678;2024-01-11T00:09:13;103106.69;;;-3.70;68.25
80712;BME280;70078;51.596;5.678;2024-01-11T00:11:38;103110.03;;;-3.60;68.27
80712;BME280;70078;51.596;5.678;2024-01-11T00:14:03;103101.50;;;-3.74;68.17
80712;BME280;70078;51.596;5.678;2024-01-11T00:16:29;103111.88;;;-3.68;68.20
80712;BME280;70078;51.596;5.678;2024-01-11T00:18:54;103109.97;;;-3.57;68.20
80712;BME280;70078;51.596;5.678;2024-01-11T00:21:19;103078.06;;;-3.79;67.91
80712;BME280;70078;51.596;5.678;2024-01-11T00:23:45;103094.50;;;-3.69;68.10
80712;BME280;70078;51.596;5.678;2024-01-11T00:26:13;103102.31;;;-3.68;68.28
80712;BME280;70078;51.596;5.678;2024-01-11T00:28:38;103103.22;;;-3.70;68.65
80712;BME280;70078;51.596;5.678;2024-01-11T00:31:04;103066.94;;;-3.92;68.13
80712;BME280;70078;51.596;5.678;2024-01-11T00:33:29;103104.09;;;-3.73;68.27
80712;BME280;70078;51.596;5.678;2024-01-11T00:35:55;103108.34;;;-3.64;68.29
80712;BME280;70078;51.596;5.678;2024-01-11T00:38:20;103104.16;;;-3.79;68.54
80712;BME280;70078;51.596;5.678;2024-01-11T00:40:45;103084.34;;;-3.94;68.58
80712;BME280;70078;51.596;5.678;2024-01-11T00:43:11;103114.56;;;-3.74;68.73
80712;BME280;70078;51.596;5.678;2024-01-11T00:45:36;103100.00;;;-3.92;68.37
80712;BME280;70078;51.596;5.678;2024-01-11T00:48:01;103094.78;;;-3.94;68.71
80712;BME280;70078;51.596;5.678;2024-01-11T00:50:27;103099.94;;;-3.87;68.49
80712;BME280;70078;51.596;5.678;2024-01-11T00:52:55;103080.06;;;-3.98;68.60
80712;BME280;70078;51.596;5.678;2024-01-11T00:55:21;103063.75;;;-4.15;68.71
80712;BME280;70078;51.596;5.678;2024-01-11T00:57:46;103092.16;;;-3.91;68.75
80712;BME280;70078;51.596;5.678;2024-01-11T01:00:12;103103.50;;;-3.96;69.36
80712;BME280;70078;51.596;5.678;2024-01-11T01:02:40;103105.97;;;-3.82;68.88
80712;BME280;70078;51.596;5.678;2024-01-11T01:05:06;103092.03;;;-3.81;68.78
80712;BME280;70078;51.596;5.678;2024-01-11T01:07:31;103074.94;;;-4.05;68.88
80712;BME280;70078;51.596;5.678;2024-01-11T01:09:57;103041.28;;;-4.28;68.80
80712;BME280;70078;51.596;5.678;2024-01-11T01:12:22;103110.34;;;-3.86;68.93
80712;BME280;70078;51.596;5.678;2024-01-11T01:14:47;103100.16;;;-4.09;69.20
80712;BME280;70078;51.596;5.678;2024-01-11T01:17:13;103114.78;;;-3.94;69.29
80712;BME280;70078;51.596;5.678;2024-01-11T01:19:38;103094.13;;;-4.12;69.15
80712;BME280;70078;51.596;5.678;2024-01-11T01:22:06;103115.69;;;-3.97;69.16
80712;BME280;70078;51.596;5.678;2024-01-11T01:24:31;103095.03;;;-4.15;69.44
80712;BME280;70078;51.596;5.678;2024-01-11T01:26:57;103119.22;;;-4.02;69.63
80712;BME280;70078;51.596;5.678;2024-01-11T01:29:22;103106.38;;;-4.19;70.01
80712;BME280;70078;51.596;5.678;2024-01-11T01:31:47;103103.75;;;-4.19;69.73
80712;BME280;70078;51.596;5.678;2024-01-11T01:34:13;103096.78;;;-4.17;69.87
80712;BME280;70078;51.596;5.678;2024-01-11T01:36:40;103134.00;;;-4.03;69.78
80712;BME280;70078;51.596;5.678;2024-01-11T01:39:05;103136.69;;;-4.09;70.00
80712;BME280;70078;51.596;5.678;2024-01-11T01:41:30;103130.66;;;-4.14;70.17
80712;BME280;70078;51.596;5.678;2024-01-11T01:43:56;103116.91;;;-4.28;70.31
80712;BME280;70078;51.596;5.678;2024-01-11T01:46:24;103108.28;;;-4.35;70.39
80712;BME280;70078;51.596;5.678;2024-01-11T01:48:52;103139.34;;;-4.12;70.32
80712;BME280;70078;51.596;5.678;2024-01-11T01:51:18;103152.41;;;-4.15;70.31
80712;BME280;70078;51.596;5.678;2024-01-11T01:53:44;103120.50;;;-4.41;70.23
80712;BME280;70078;51.596;5.678;2024-01-11T01:56:10;103129.19;;;-4.38;70.26
80712;BME280;70078;51.596;5.678;2024-01-11T01:58:35;103087.69;;;-4.64;70.42
80712;BME280;70078;51.596;5.678;2024-01-11T02:01:03;103129.16;;;-4.36;70.18
80712;BME280;70078;51.596;5.678;2024-01-11T02:03:29;103148.94;;;-4.17;70.07
80712;BME280;70078;51.596;5.678;2024-01-11T02:05:55;103140.28;;;-4.19;69.89
80712;BME280;70078;51.596;5.678;2024-01-11T02:08:22;103139.38;;;-4.18;69.84
80712;BME280;70078;51.596;5.678;2024-01-11T02:10:48;103141.13;;;-4.15;69.62
80712;BME280;70078;51.596;5.678;2024-01-11T02:13:13;103139.38;;;-4.15;69.52
80712;BME280;70078;51.596;5.678;2024-01-11T02:15:39;103131.59;;;-4.21;69.69
80712;BME280;70078;51.596;5.678;2024-01-11T02:18:04;103120.38;;;-4.31;69.58
80712;BME280;70078;51.596;5.678;2024-01-11T02:20:31;103136.91;;;-4.30;69.57
80712;BME280;70078;51.596;5.678;2024-01-11T02:23:01;103143.91;;;-4.35;69.60
80712;BME280;70078;51.596;5.678;2024-01-11T02:25:28;103141.31;;;-4.38;69.91
80712;BME280;70078;51.596;5.678;2024-01-11T02:27:56;103160.41;;;-4.35;69.81
80712;BME280;70078;51.596;5.678;2024-01-11T02:30:21;103143.06;;;-4.39;69.72
80712;BME280;70078;51.596;5.678;2024-01-11T02:32:48;103150.94;;;-4.43;69.82
80712;BME280;70078;51.596;5.678;2024-01-11T02:35:18;103142.28;;;-4.49;69.94
80712;BME280;70078;51.596;5.678;2024-01-11T02:37:44;103128.47;;;-4.57;69.57
80712;BME280;70078;51.596;5.678;2024-01-11T02:40:12;103138.84;;;-4.51;69.48
80712;BME280;70078;51.596;5.678;2024-01-11T02:42:38;103127.63;;;-4.59;69.46
80712;BME280;70078;51.596;5.678;2024-01-11T02:45:03;103145.81;;;-4.53;69.68
80712;BME280;70078;51.596;5.678;2024-01-11T02:47:29;103137.19;;;-4.61;69.80
80712;BME280;70078;51.596;5.678;2024-01-11T02:49:54;103110.44;;;-4.81;69.94
80712;BME280;70078;51.596;5.678;2024-01-11T02:52:19;103158.81;;;-4.54;69.88
80712;BME280;70078;51.596;5.678;2024-01-11T02:54:45;103148.47;;;-4.62;69.98
80712;BME280;70078;51.596;5.678;2024-01-11T02:57:10;103170.19;;;-4.60;70.10
80712;BME280;70078;51.596;5.678;2024-01-11T02:59:36;103157.16;;;-4.61;69.93
80712;BME280;70078;51.596;5.678;2024-01-11T03:02:01;103128.63;;;-4.75;70.21
80712;BME280;70078;51.596;5.678;2024-01-11T03:04:27;103140.75;;;-4.74;70.21
80712;BME280;70078;51.596;5.678;2024-01-11T03:06:52;103149.31;;;-4.61;70.22
80712;BME280;70078;51.596;5.678;2024-01-11T03:09:17;103133.84;;;-4.78;69.93
80712;BME280;70078;51.596;5.678;2024-01-11T03:11:43;103145.13;;;-4.78;70.15
80712;BME280;70078;51.596;5.678;2024-01-11T03:14:08;103156.34;;;-4.68;69.96
80712;BME280;70078;51.596;5.678;2024-01-11T03:16:33;103152.88;;;-4.70;69.83
80712;BME280;70078;51.596;5.678;2024-01-11T03:19:02;103153.75;;;-4.69;69.94
80712;BME280;70078;51.596;5.678;2024-01-11T03:21:27;103139.13;;;-4.89;69.91
80712;BME280;70078;51.596;5.678;2024-01-11T03:23:53;103133.13;;;-4.98;70.09
80712;BME280;70078;51.596;5.678;2024-01-11T03:26:18;103119.28;;;-5.04;69.89
80712;BME280;70078;51.596;5.678;2024-01-11T03:28:46;103136.59;;;-4.98;69.40
80712;BME280;70078;51.596;5.678;2024-01-11T03:31:11;103133.13;;;-4.97;69.32
80712;BME280;70078;51.596;5.678;2024-01-11T03:33:37;103122.72;;;-5.00;69.38
80712;BME280;70078;51.596;5.678;2024-01-11T03:36:09;103146.16;;;-5.02;70.25
80712;BME280;70078;51.596;5.678;2024-01-11T03:38:35;103148.78;;;-5.05;70.35
80712;BME280;70078;51.596;5.678;2024-01-11T03:41:01;103102.06;;;-5.29;70.36
80712;BME280;70078;51.596;5.678;2024-01-11T03:43:26;103145.31;;;-5.07;70.72
80712;BME280;70078;51.596;5.678;2024-01-11T03:45:52;103146.25;;;-5.12;70.79
80712;BME280;70078;51.596;5.678;2024-01-11T03:48:17;103133.25;;;-5.23;71.06
80712;BME280;70078;51.596;5.678;2024-01-11T03:50:42;103154.03;;;-5.11;71.12
80712;BME280;70078;51.596;5.678;2024-01-11T03:53:08;103152.34;;;-5.18;71.19
80712;BME280;70078;51.596;5.678;2024-01-11T03:55:33;103149.72;;;-5.16;70.89
80712;BME280;70078;51.596;5.678;2024-01-11T03:57:59;103141.94;;;-5.24;70.85
80712;BME280;70078;51.596;5.678;2024-01-11T04:00:24;103137.59;;;-5.22;70.92
80712;BME280;70078;51.596;5.678;2024-01-11T04:02:49;103114.28;;;-5.40;70.94
80712;BME280;70078;51.596;5.678;2024-01-11T04:05:15;103122.97;;;-5.46;71.04
80712;BME280;70078;51.596;5.678;2024-01-11T04:07:41;103102.25;;;-5.67;71.28
80712;BME280;70078;51.596;5.678;2024-01-11T04:10:06;103156.81;;;-5.47;71.44
80712;BME280;70078;51.596;5.678;2024-01-11T04:12:35;103170.69;;;-5.42;71.56
80712;BME280;70078;51.596;5.678;2024-01-11T04:15:01;103142.13;;;-5.57;71.05
80712;BME280;70078;51.596;5.678;2024-01-11T04:17:26;103181.97;;;-5.42;71.08
80712;BME280;70078;51.596;5.678;2024-01-11T04:19:51;103056.53;;;-6.09;71.14
80712;BME280;70078;51.596;5.678;2024-01-11T04:22:16;103167.25;;;-5.49;71.01
80712;BME280;70078;51.596;5.678;2024-01-11T04:24:42;103172.47;;;-5.60;71.60
80712;BME280;70078;51.596;5.678;2024-01-11T04:27:08;103187.22;;;-5.62;72.14
80712;BME280;70078;51.596;5.678;2024-01-11T04:29:33;103190.72;;;-5.67;72.02
80712;BME280;70078;51.596;5.678;2024-01-11T04:31:59;103164.75;;;-5.84;72.53
80712;BME280;70078;51.596;5.678;2024-01-11T04:34:24;103188.09;;;-5.56;73.12
80712;BME280;70078;51.596;5.678;2024-01-11T04:36:49;103158.66;;;-5.77;72.79
80712;BME280;70078;51.596;5.678;2024-01-11T04:39:14;103172.50;;;-5.64;72.86
80712;BME280;70078;51.596;5.678;2024-01-11T04:41:40;103179.44;;;-5.65;73.12
80712;BME280;70078;51.596;5.678;2024-01-11T04:44:05;103187.25;;;-5.59;73.23
80712;BME280;70078;51.596;5.678;2024-01-11T04:46:31;103175.97;;;-5.70;73.15
80712;BME280;70078;51.596;5.678;2024-01-11T04:48:56;103176.00;;;-5.73;73.39
80712;BME280;70078;51.596;5.678;2024-01-11T04:51:21;103156.97;;;-5.90;73.06
80712;BME280;70078;51.596;5.678;2024-01-11T04:53:47;103202.88;;;-5.71;73.31
80712;BME280;70078;51.596;5.678;2024-01-11T04:56:16;103195.94;;;-5.70;72.94
80712;BME280;70078;51.596;5.678;2024-01-11T04:58:43;103191.59;;;-5.70;72.95
80712;BME280;70078;51.596;5.678;2024-01-11T05:01:16;103206.34;;;-5.72;73.57
80712;BME280;70078;51.596;5.678;2024-01-11T05:03:45;103216.75;;;-5.70;73.16
80712;BME280;70078;51.596;5.678;2024-01-11T05:06:20;103212.41;;;-5.67;73.22
80712;BME280;70078;51.596;5.678;2024-01-11T05:08:48;103207.19;;;-5.68;73.09
80712;BME280;70078;51.596;5.678;2024-01-11T05:11:21;103213.28;;;-5.71;73.58
80712;BME280;70078;51.596;5.678;2024-01-11T05:13:47;103189.06;;;-5.88;73.75
80712;BME280;70078;51.596;5.678;2024-01-11T05:16:23;103212.41;;;-5.76;73.99
80712;BME280;70078;51.596;5.678;2024-01-11T05:18:50;103218.50;;;-5.78;73.70
80712;BME280;70078;51.596;5.678;2024-01-11T05:21:16;103213.28;;;-5.75;73.78
80712;BME280;70078;51.596;5.678;2024-01-11T05:23:42;103216.75;;;-5.73;73.46
80712;BME280;70078;51.596;5.678;2024-01-11T05:26:08;103200.31;;;-5.89;73.39
80712;BME280;70078;51.596;5.678;2024-01-11T05:28:34;103228.03;;;-5.79;73.79
80712;BME280;70078;51.596;5.678;2024-01-11T05:30:59;103221.13;;;-5.86;73.83
80712;BME280;70078;51.596;5.678;2024-01-11T05:33:24;103208.16;;;-5.98;74.20
80712;BME280;70078;51.596;5.678;2024-01-11T05:35:50;103201.25;;;-6.02;74.00
80712;BME280;70078;51.596;5.678;2024-01-11T05:38:15;103209.03;;;-5.93;73.94
80712;BME280;70078;51.596;5.678;2024-01-11T05:40:41;103206.41;;;-5.93;73.38
80712;BME280;70078;51.596;5.678;2024-01-11T05:43:06;103210.72;;;-5.89;73.09
80712;BME280;70078;51.596;5.678;2024-01-11T05:45:31;103216.78;;;-5.86;72.98
80712;BME280;70078;51.596;5.678;2024-01-11T05:47:58;103212.47;;;-5.97;73.10
80712;BME280;70078;51.596;5.678;2024-01-11T05:50:24;103210.78;;;-6.03;73.81
80712;BME280;70078;51.596;5.678;2024-01-11T05:52:49;103215.09;;;-6.05;74.28
80712;BME280;70078;51.596;5.678;2024-01-11T05:55:16;103208.16;;;-6.07;74.54
80712;BME280;70078;51.596;5.678;2024-01-11T05:57:41;103232.44;;;-5.99;74.40
80712;BME280;70078;51.596;5.678;2024-01-11T06:00:07;103234.19;;;-6.03;74.53
80712;BME280;70078;51.596;5.678;2024-01-11T06:02:32;103240.25;;;-6.22;75.05
80712;BME280;70078;51.596;5.678;2024-01-11T06:04:57;103250.63;;;-6.08;75.28
80712;BME280;70078;51.596;5.678;2024-01-11T06:07:23;103252.38;;;-6.15;75.17
80712;BME280;70078;51.596;5.678;2024-01-11T06:09:48;103238.50;;;-6.17;74.64
80712;BME280;70078;51.596;5.678;2024-01-11T06:12:14;103248.91;;;-6.19;74.28
80712;BME280;70078;51.596;5.678;2024-01-11T06:14:39;103246.31;;;-6.19;74.46
80712;BME280;70078;51.596;5.678;2024-01-11T06:17:04;103236.75;;;-6.20;73.99
80712;BME280;70078;51.596;5.678;2024-01-11T06:19:30;103237.63;;;-6.28;74.84
80712;BME280;70078;51.596;5.678;2024-01-11T06:21:55;103230.69;;;-6.37;74.93
80712;BME280;70078;51.596;5.678;2024-01-11T06:24:20;103243.69;;;-6.28;75.01
80712;BME280;70078;51.596;5.678;2024-01-11T06:26:45;103222.94;;;-6.34;74.47
80712;BME280;70078;51.596;5.678;2024-01-11T06:29:11;103234.19;;;-6.24;74.45
80712;BME280;70078;51.596;5.678;2024-01-11T06:31:36;103228.97;;;-6.32;74.28
80712;BME280;70078;51.596;5.678;2024-01-11T06:34:01;103254.97;;;-6.26;75.08
80712;BME280;70078;51.596;5.678;2024-01-11T06:36:27;103248.03;;;-6.30;74.81
80712;BME280;70078;51.596;5.678;2024-01-11T06:38:52;103248.91;;;-6.34;74.90
80712;BME280;70078;51.596;5.678;2024-01-11T06:41:17;103241.09;;;-6.46;74.90
80712;BME280;70078;51.596;5.678;2024-01-11T06:43:43;103214.22;;;-6.60;75.23
80712;BME280;70078;51.596;5.678;2024-01-11T06:46:08;103265.38;;;-6.32;75.72
80712;BME280;70078;51.596;5.678;2024-01-11T06:48:35;103234.13;;;-6.58;75.59
80712;BME280;70078;51.596;5.678;2024-01-11T06:51:01;103266.22;;;-6.40;75.58
80712;BME280;70078;51.596;5.678;2024-01-11T06:53:26;103263.63;;;-6.37;74.85
80712;BME280;70078;51.596;5.678;2024-01-11T06:55:52;103258.44;;;-6.48;75.00
80712;BME280;70078;51.596;5.678;2024-01-11T06:58:23;103273.16;;;-6.41;75.06
80712;BME280;70078;51.596;5.678;2024-01-11T07:00:51;103261.88;;;-6.52;75.51
80712;BME280;70078;51.596;5.678;2024-01-11T07:03:17;103288.75;;;-6.41;75.68
80712;BME280;70078;51.596;5.678;2024-01-11T07:05:42;103285.22;;;-6.58;75.74
80712;BME280;70078;51.596;5.678;2024-01-11T07:08:08;103304.28;;;-6.50;76.15
80712;BME280;70078;51.596;5.678;2024-01-11T07:10:33;103303.44;;;-6.57;76.21
80712;BME280;70078;51.596;5.678;2024-01-11T07:12:58;103270.47;;;-6.79;76.43
80712;BME280;70078;51.596;5.678;2024-01-11T07:15:24;103292.13;;;-6.69;75.71
80712;BME280;70078;51.596;5.678;2024-01-11T07:17:49;103269.59;;;-6.83;75.24
80712;BME280;70078;51.596;5.678;2024-01-11T07:20:14;103285.19;;;-6.74;75.45
80712;BME280;70078;51.596;5.678;2024-01-11T07:22:41;103278.25;;;-6.75;75.87
80712;BME280;70078;51.596;5.678;2024-01-11T07:25:07;103296.47;;;-6.58;75.40
80712;BME280;70078;51.596;5.678;2024-01-11T07:27:32;103297.34;;;-6.66;75.27
80712;BME280;70078;51.596;5.678;2024-01-11T07:29:58;103287.84;;;-6.64;75.46
80712;BME280;70078;51.596;5.678;2024-01-11T07:32:23;103298.25;;;-6.57;75.57
80712;BME280;70078;51.596;5.678;2024-01-11T07:34:48;103295.63;;;-6.58;75.74
80712;BME280;70078;51.596;5.678;2024-01-11T07:37:14;103266.13;;;-6.82;75.55
80712;BME280;70078;51.596;5.678;2024-01-11T07:39:39;103308.59;;;-6.58;75.99
80712;BME280;70078;51.596;5.678;2024-01-11T07:42:04;103300.78;;;-6.77;76.14
80712;BME280;70078;51.596;5.678;2024-01-11T07:44:30;103307.75;;;-6.63;76.00
80712;BME280;70078;51.596;5.678;2024-01-11T07:46:55;103304.25;;;-6.65;76.18
80712;BME280;70078;51.596;5.678;2024-01-11T07:49:21;103313.81;;;-6.64;76.55
80712;BME280;70078;51.596;5.678;2024-01-11T07:51:46;103293.84;;;-6.75;76.71
80712;BME280;70078;51.596;5.678;2024-01-11T07:54:11;103306.00;;;-6.69;75.88
80712;BME280;70078;51.596;5.678;2024-01-11T07:56:37;103290.41;;;-6.67;75.37
80712;BME280;70078;51.596;5.678;2024-01-11T07:59:02;103281.72;;;-6.73;75.85
80712;BME280;70078;51.596;5.678;2024-01-11T08:01:28;103275.69;;;-6.67;76.34
80712;BME280;70078;51.596;5.678;2024-01-11T08:03:53;103273.13;;;-6.64;76.24
80712;BME280;70078;51.596;5.678;2024-01-11T08:06:18;103277.44;;;-6.58;76.40
80712;BME280;70078;51.596;5.678;2024-01-11T08:08:43;103279.19;;;-6.54;76.59
80712;BME280;70078;51.596;5.678;2024-01-11T08:11:09;103249.72;;;-6.68;76.80
80712;BME280;70078;51.596;5.678;2024-01-11T08:13:35;103285.25;;;-6.43;76.98
80712;BME280;70078;51.596;5.678;2024-01-11T08:16:01;103280.06;;;-6.38;77.16
80712;BME280;70078;51.596;5.678;2024-01-11T08:18:30;103285.28;;;-6.34;77.18
80712;BME280;70078;51.596;5.678;2024-01-11T08:20:55;103288.75;;;-6.30;77.59
80712;BME280;70078;51.596;5.678;2024-01-11T08:23:20;103283.53;;;-6.35;77.94
80712;BME280;70078;51.596;5.678;2024-01-11T08:25:46;103288.75;;;-6.27;77.11
80712;BME280;70078;51.596;5.678;2024-01-11T08:28:11;103288.75;;;-6.29;77.30
80712;BME280;70078;51.596;5.678;2024-01-11T08:30:36;103265.34;;;-6.30;77.48
80712;BME280;70078;51.596;5.678;2024-01-11T08:33:02;103284.41;;;-6.15;77.27
80712;BME280;70078;51.596;5.678;2024-01-11T08:35:29;103286.16;;;-6.07;77.66
80712;BME280;70078;51.596;5.678;2024-01-11T08:37:54;103253.25;;;-6.18;77.66
80712;BME280;70078;51.596;5.678;2024-01-11T08:40:20;103262.75;;;-6.07;77.46
80712;BME280;70078;51.596;5.678;2024-01-11T08:42:45;103279.25;;;-5.96;77.76
80712;BME280;70078;51.596;5.678;2024-01-11T08:45:11;103256.69;;;-6.06;78.23
80712;BME280;70078;51.596;5.678;2024-01-11T08:47:45;103291.31;;;-5.84;78.01
80712;BME280;70078;51.596;5.678;2024-01-11T08:50:15;103302.56;;;-5.69;78.03
80712;BME280;70078;51.596;5.678;2024-01-11T08:52:41;103294.78;;;-5.69;78.17
80712;BME280;70078;51.596;5.678;2024-01-11T08:55:07;103286.09;;;-5.68;77.88
80712;BME280;70078;51.596;5.678;2024-01-11T08:57:33;103279.16;;;-5.64;78.21
80712;BME280;70078;51.596;5.678;2024-01-11T09:00:01;103275.66;;;-5.54;78.09
80712;BME280;70078;51.596;5.678;2024-01-11T09:02:27;103277.38;;;-5.45;78.39
80712;BME280;70078;51.596;5.678;2024-01-11T09:04:52;103304.19;;;-5.16;78.24
80712;BME280;70078;51.596;5.678;2024-01-11T09:07:17;103298.06;;;-5.01;78.45
80712;BME280;70078;51.596;5.678;2024-01-11T09:09:42;103290.25;;;-4.96;78.67
80712;BME280;70078;51.596;5.678;2024-01-11T09:12:09;103314.34;;;-4.55;78.81
80712;BME280;70078;51.596;5.678;2024-01-11T09:14:35;103310.75;;;-4.34;79.17
80712;BME280;70078;51.596;5.678;2024-01-11T09:17:00;103322.63;;;-3.95;79.63
80712;BME280;70078;51.596;5.678;2024-01-11T09:19:25;103329.22;;;-3.55;79.51
80712;BME280;70078;51.596;5.678;2024-01-11T09:21:51;103299.44;;;-3.31;78.76
80712;BME280;70078;51.596;5.678;2024-01-11T09:24:16;103324.88;;;-2.76;78.06
80712;BME280;70078;51.596;5.678;2024-01-11T09:26:41;103310.63;;;-2.53;76.71
80712;BME280;70078;51.596;5.678;2024-01-11T09:29:07;103326.69;;;-2.17;76.92
80712;BME280;70078;51.596;5.678;2024-01-11T09:31:32;103320.25;;;-1.96;76.52
80712;BME280;70078;51.596;5.678;2024-01-11T09:33:57;103339.91;;;-1.72;75.16
80712;BME280;70078;51.596;5.678;2024-01-11T09:36:22;103342.03;;;-1.45;74.48
80712;BME280;70078;51.596;5.678;2024-01-11T09:38:48;103324.59;;;-0.99;73.67
80712;BME280;70078;51.596;5.678;2024-01-11T09:41:14;103324.47;;;-0.53;73.85
80712;BME280;70078;51.596;5.678;2024-01-11T09:43:42;103328.44;;;-0.34;72.12
80712;BME280;70078;51.596;5.678;2024-01-11T09:46:10;103356.84;;;-0.14;70.75
80712;BME280;70078;51.596;5.678;2024-01-11T09:48:38;103343.03;;;0.82;70.61
80712;BME280;70078;51.596;5.678;2024-01-11T09:51:09;103350.34;;;1.03;68.78
80712;BME280;70078;51.596;5.678;2024-01-11T09:53:37;103327.69;;;0.99;66.53
80712;BME280;70078;51.596;5.678;2024-01-11T09:56:07;103351.16;;;1.36;65.32
80712;BME280;70078;51.596;5.678;2024-01-11T09:58:34;103341.84;;;1.54;63.81
80712;BME280;70078;51.596;5.678;2024-01-11T10:01:02;103338.22;;;1.86;63.02
80712;BME280;70078;51.596;5.678;2024-01-11T10:03:28;103329.31;;;1.90;61.83
80712;BME280;70078;51.596;5.678;2024-01-11T10:05:57;103347.31;;;2.04;61.78
80712;BME280;70078;51.596;5.678;2024-01-11T10:08:23;103347.00;;;2.13;62.07
80712;BME280;70078;51.596;5.678;2024-01-11T10:10:49;103339.13;;;2.38;60.65
80712;BME280;70078;51.596;5.678;2024-01-11T10:13:15;103353.09;;;2.92;59.23
80712;BME280;70078;51.596;5.678;2024-01-11T10:15:41;103328.88;;;2.56;59.64
80712;BME280;70078;51.596;5.678;2024-01-11T10:18:07;103352.28;;;2.90;58.12
80712;BME280;70078;51.596;5.678;2024-01-11T10:20:32;103378.63;;;2.91;59.02
80712;BME280;70078;51.596;5.678;2024-01-11T10:22:58;103386.47;;;2.93;56.91
80712;BME280;70078;51.596;5.678;2024-01-11T10:25:24;103379.06;;;3.51;56.17
80712;BME280;70078;51.596;5.678;2024-01-11T10:27:50;103376.63;;;3.68;53.85
80712;BME280;70078;51.596;5.678;2024-01-11T10:30:16;103372.16;;;3.70;53.74
80712;BME280;70078;51.596;5.678;2024-01-11T10:32:42;103373.22;;;3.88;53.59
80712;BME280;70078;51.596;5.678;2024-01-11T10:35:08;103377.63;;;3.66;53.83
80712;BME280;70078;51.596;5.678;2024-01-11T10:37:33;103358.25;;;3.20;54.13
80712;BME280;70078;51.596;5.678;2024-01-11T10:40:03;103371.09;;;3.29;53.67
80712;BME280;70078;51.596;5.678;2024-01-11T10:42:31;103369.50;;;3.48;53.75
80712;BME280;70078;51.596;5.678;2024-01-11T10:44:59;103370.03;;;4.02;51.34
80712;BME280;70078;51.596;5.678;2024-01-11T10:47:30;103365.38;;;4.08;51.71
80712;BME280;70078;51.596;5.678;2024-01-11T10:49:56;103345.88;;;3.89;49.71
80712;BME280;70078;51.596;5.678;2024-01-11T10:52:26;103353.44;;;3.98;49.62
80712;BME280;70078;51.596;5.678;2024-01-11T10:54:52;103353.34;;;4.00;49.44
80712;BME280;70078;51.596;5.678;2024-01-11T10:57:18;103366.16;;;4.10;49.39
80712;BME280;70078;51.596;5.678;2024-01-11T10:59:44;103373.47;;;4.04;48.54
80712;BME280;70078;51.596;5.678;2024-01-11T11:02:10;103343.91;;;3.94;48.42
80712;BME280;70078;51.596;5.678;2024-01-11T11:04:38;103353.41;;;4.20;48.11
80712;BME280;70078;51.596;5.678;2024-01-11T11:07:05;103338.97;;;4.07;48.82
80712;BME280;70078;51.596;5.678;2024-01-11T11:09:34;103348.03;;;4.01;49.27
80712;BME280;70078;51.596;5.678;2024-01-11T11:12:00;103370.66;;;4.08;49.89
80712;BME280;70078;51.596;5.678;2024-01-11T11:14:27;103374.31;;;3.82;49.89
80712;BME280;70078;51.596;5.678;2024-01-11T11:16:53;103360.31;;;4.02;49.29
80712;BME280;70078;51.596;5.678;2024-01-11T11:19:22;103377.75;;;4.06;49.82
80712;BME280;70078;51.596;5.678;2024-01-11T11:21:48;103347.66;;;3.88;48.82
80712;BME280;70078;51.596;5.678;2024-01-11T11:24:14;103385.97;;;4.42;48.46
80712;BME280;70078;51.596;5.678;2024-01-11T11:26:42;103381.22;;;4.08;49.03
80712;BME280;70078;51.596;5.678;2024-01-11T11:29:08;103366.41;;;4.67;48.98
80712;BME280;70078;51.596;5.678;2024-01-11T11:31:34;103364.38;;;4.94;48.30
80712;BME280;70078;51.596;5.678;2024-01-11T11:34:00;103369.94;;;5.27;47.55
80712;BME280;70078;51.596;5.678;2024-01-11T11:36:29;103373.53;;;5.26;48.65
80712;BME280;70078;51.596;5.678;2024-01-11T11:38:54;103366.88;;;5.74;49.42
80712;BME280;70078;51.596;5.678;2024-01-11T11:41:25;103382.47;;;5.80;47.31
80712;BME280;70078;51.596;5.678;2024-01-11T11:43:51;103361.50;;;5.94;47.47
80712;BME280;70078;51.596;5.678;2024-01-11T11:46:16;103380.25;;;6.08;47.48
80712;BME280;70078;51.596;5.678;2024-01-11T11:48:51;103381.66;;;5.61;45.86
80712;BME280;70078;51.596;5.678;2024-01-11T11:51:21;103387.78;;;5.03;46.65
80712;BME280;70078;51.596;5.678;2024-01-11T11:53:48;103379.72;;;5.45;47.81
80712;BME280;70078;51.596;5.678;2024-01-11T11:56:16;103394.59;;;5.85;46.39
80712;BME280;70078;51.596;5.678;2024-01-11T11:58:42;103392.00;;;6.39;46.31
80712;BME280;70078;51.596;5.678;2024-01-11T12:01:08;103363.28;;;6.64;46.27
80712;BME280;70078;51.596;5.678;2024-01-11T12:03:38;103389.53;;;6.88;45.98
80712;BME280;70078;51.596;5.678;2024-01-11T12:06:05;103375.09;;;7.09;44.46
80712;BME280;70078;51.596;5.678;2024-01-11T12:08:32;103336.00;;;6.28;43.40
80712;BME280;70078;51.596;5.678;2024-01-11T12:10:58;103368.31;;;6.53;43.92
80712;BME280;70078;51.596;5.678;2024-01-11T12:13:24;103370.22;;;6.32;44.19
80712;BME280;70078;51.596;5.678;2024-01-11T12:15:50;103344.66;;;6.66;42.64
80712;BME280;70078;51.596;5.678;2024-01-11T12:18:15;103357.69;;;6.53;42.45
80712;BME280;70078;51.596;5.678;2024-01-11T12:20:40;103327.25;;;6.43;41.07
80712;BME280;70078;51.596;5.678;2024-01-11T12:23:06;103345.97;;;6.75;41.09
80712;BME280;70078;51.596;5.678;2024-01-11T12:25:31;103344.25;;;6.39;41.66
80712;BME280;70078;51.596;5.678;2024-01-11T12:27:57;103350.03;;;6.47;41.16
80712;BME280;70078;51.596;5.678;2024-01-11T12:30:24;103354.34;;;5.96;42.81
80712;BME280;70078;51.596;5.678;2024-01-11T12:32:55;103334.59;;;5.47;43.20
80712;BME280;70078;51.596;5.678;2024-01-11T12:35:22;103330.72;;;5.35;44.44
80712;BME280;70078;51.596;5.678;2024-01-11T12:40:21;103335.84;;;5.00;44.75
80712;BME280;70078;51.596;5.678;2024-01-11T12:42:47;103345.88;;;5.13;45.54
80712;BME280;70078;51.596;5.678;2024-01-11T12:45:14;103288.78;;;5.26;45.64
80712;BME280;70078;51.596;5.678;2024-01-11T12:47:40;103310.84;;;5.45;45.17
80712;BME280;70078;51.596;5.678;2024-01-11T12:50:06;103338.75;;;5.34;45.71